Weather  for  Joplin, Joplin Regional Airport  -  United States    United States

6 °C (43 °F)

Current METAR for Joplin, Joplin Regional Airport is :

KJLN 210253Z AUTO 32006KT 10SM FEW033 OVC050 06/03 A3003 RMK AO2 SLP170 T00610028 51016


This is a report for Joplin, Joplin Regional Airport - United States.
The report was made 6 minutes ago, at 02:53 UTC .
The wind was blowing at a speed of 3.1 meters per second (6.9 miles per hour) from northwest (320°).
The temperature was 6 °C (43 °F), with a dew-point at 3 °C (37 °F).
The atmospheric pressure was 1017 hPa (30.03 inHg).
The relative humidity was 81.0%.
There were a few clouds at a height of 1006 meters (3300 feet). The sky was overcast from a height of 1524 meter (5000 feet)
The overall visibility was 16.1 kilometers (10.0 miles).


Country :   A   B   C   D   E   F   G   H   I   J   K   L   M   N   O   P   Q   R   S   T   U   V   W   Y   Z


Site Info  |  Disclaimer  |  Credits  |  Privacy
Contact us  |  Add to favorites
© 2013-2018 METARs - All rights reserved